Time;durP1;ratioP1;P1;durP2;ratioP2;P2;SDS_P1;SDS_P2;PMS_P1;PMS_P2;Temp;Humidity;BMP_temperature;BMP_pressure;BME280_temperature;BME280_humidity;BME280_pressure;Samples;Min_cycle;Max_cycle;Signal;HPM_P1;HPM_P2
2021/07/19 00:01:13;;;;;;;;;11.75;10.50;;;;;23.98;52.29;101589.19;5079059;27;45452;-50
2021/07/19 00:03:38;;;;;;;;;13.25;10.25;;;;;23.97;52.44;101581.34;5079517;28;45575;-47
2021/07/19 00:06:04;;;;;;;;;11.25;11.25;;;;;23.98;52.06;101588.38;5078830;27;46197;-46
2021/07/19 00:08:29;;;;;;;;;7.00;6.50;;;;;23.97;52.19;101584.88;5079028;28;45348;-50
2021/07/19 00:10:55;;;;;;;;;11.75;9.75;;;;;23.98;52.34;101588.38;5079381;28;45202;-53
2021/07/19 00:13:21;;;;;;;;;12.25;12.25;;;;;23.95;52.30;101584.09;5078635;27;45645;-49
2021/07/19 00:15:46;;;;;;;;;13.00;10.00;;;;;23.96;52.59;101579.66;5078749;28;45329;-49
2021/07/19 00:18:12;;;;;;;;;9.50;8.50;;;;;23.97;52.37;101586.66;5078706;27;45319;-47
2021/07/19 00:20:37;;;;;;;;;10.75;10.00;;;;;23.95;52.29;101578.81;5078590;28;45460;-48
2021/07/19 00:23:03;;;;;;;;;11.00;9.25;;;;;23.95;52.46;101589.41;5060846;28;45359;-46
2021/07/19 00:25:28;;;;;;;;;11.25;9.25;;;;;23.96;52.26;101583.16;5078866;28;46615;-46
2021/07/19 00:27:55;;;;;;;;;11.00;9.25;;;;;23.96;52.63;101583.16;5078520;28;45290;-46
2021/07/19 00:30:22;;;;;;;;;10.25;10.25;;;;;23.97;52.68;101576.06;5078786;27;45359;-48
2021/07/19 00:32:48;;;;;;;;;11.00;9.75;;;;;23.97;52.32;101578.72;5078790;27;45497;-46
2021/07/19 00:35:14;;;;;;;;;10.00;9.50;;;;;23.96;52.32;101590.25;5060227;28;47885;-48
2021/07/19 00:37:41;;;;;;;;;9.75;9.75;;;;;23.96;52.59;101590.25;5078459;28;45478;-47
2021/07/19 00:40:16;;;;;;;;;9.00;8.25;;;;;23.96;52.25;101591.13;5078334;28;45312;-46
2021/07/19 00:42:46;;;;;;;;;9.25;9.25;;;;;23.97;52.05;101599.91;5078730;28;45327;-46
2021/07/19 00:45:16;;;;;;;;;9.50;8.00;;;;;23.97;52.82;101590.19;5078194;27;46436;-51
2021/07/19 00:47:44;;;;;;;;;8.00;8.00;;;;;23.95;52.88;101589.41;5078143;27;45780;-46
2021/07/19 00:50:10;;;;;;;;;11.75;9.25;;;;;23.95;52.42;101589.41;5078437;28;45276;-47
2021/07/19 00:52:36;;;;;;;;;8.00;8.00;;;;;23.94;52.33;101591.16;5078555;28;45691;-48
2021/07/19 00:55:04;;;;;;;;;9.75;9.25;;;;;23.96;52.67;101585.81;5078107;28;45488;-50
2021/07/19 00:57:32;;;;;;;;;8.00;8.00;;;;;23.95;52.76;101597.34;5078399;27;45267;-46
2021/07/19 01:00:01;;;;;;;;;8.75;8.00;;;;;23.98;52.10;101593.66;5078490;27;45352;-46
2021/07/19 01:02:29;;;;;;;;;10.00;8.50;;;;;23.95;52.49;101592.06;5078721;28;45307;-47
2021/07/19 01:04:55;;;;;;;;;9.25;9.25;;;;;23.96;52.64;101591.13;5078123;27;45752;-46
2021/07/19 01:07:22;;;;;;;;;9.75;8.25;;;;;23.96;52.35;101590.25;5078069;28;45419;-49
2021/07/19 01:09:50;;;;;;;;;9.00;8.50;;;;;23.94;52.53;101588.50;5078120;28;45356;-49
2021/07/19 01:12:16;;;;;;;;;11.50;9.00;;;;;23.96;52.57;101588.47;5078102;28;45544;-47
2021/07/19 01:14:41;;;;;;;;;11.50;9.00;;;;;23.95;52.69;101581.47;5077837;27;45625;-51
2021/07/19 01:17:07;;;;;;;;;10.50;9.75;;;;;23.94;52.19;101579.72;5078019;28;45486;-48
2021/07/19 01:19:35;;;;;;;;;8.25;8.25;;;;;23.94;52.36;101577.06;5077797;28;45409;-46
2021/07/19 01:22:38;;;;;;;;;9.75;7.25;;;;;23.95;52.51;101581.47;5078258;27;45216;-49
2021/07/19 01:25:25;;;;;;;;;9.25;9.25;;;;;23.95;52.44;101589.41;5076114;28;46501;-47
2021/07/19 01:28:02;;;;;;;;;9.25;9.00;;;;;23.95;52.58;101589.41;5077615;27;45619;-46
2021/07/19 01:30:30;;;;;;;;;10.25;9.50;;;;;23.94;52.57;101582.38;5078099;27;45276;-46
2021/07/19 01:33:00;;;;;;;;;9.00;9.00;;;;;23.94;52.76;101582.38;5077826;28;45466;-48
2021/07/19 01:35:26;;;;;;;;;9.50;9.50;;;;;23.93;52.37;101581.50;5077316;28;45313;-48
2021/07/19 01:37:52;;;;;;;;;13.50;9.25;;;;;23.95;52.84;101581.47;5077387;28;45513;-49
2021/07/19 01:40:18;;;;;;;;;10.00;9.00;;;;;23.93;52.67;101575.38;5077450;27;45496;-48
2021/07/19 01:42:45;;;;;;;;;8.00;8.00;;;;;23.94;52.67;101577.91;5077645;27;45327;-46
2021/07/19 01:45:12;;;;;;;;;8.75;7.25;;;;;23.93;52.25;101575.38;5075969;28;46409;-48
2021/07/19 01:47:39;;;;;;;;;11.00;9.50;;;;;23.92;52.53;101576.31;5077187;27;45744;-48
2021/07/19 01:50:09;;;;;;;;;9.00;9.00;;;;;23.92;52.68;101573.66;5077508;28;45399;-47
2021/07/19 01:52:35;;;;;;;;;8.25;7.50;;;;;23.91;52.53;101571.94;5077578;28;45240;-49
2021/07/19 01:55:01;;;;;;;;;7.75;7.75;;;;;23.93;52.53;101570.91;5077507;28;45525;-46
2021/07/19 01:57:27;;;;;;;;;11.00;10.00;;;;;23.92;52.54;101571.84;5077169;28;45385;-47
2021/07/19 01:59:54;;;;;;;;;9.75;9.75;;;;;23.94;52.21;101582.38;5077264;28;45482;-46
2021/07/19 02:02:21;;;;;;;;;9.25;9.25;;;;;23.93;52.84;101578.84;5077213;28;45257;-50
2021/07/19 02:04:48;;;;;;;;;7.00;7.00;;;;;23.93;52.21;101580.66;5077004;28;46338;-47
2021/07/19 02:07:15;;;;;;;;;9.50;9.50;;;;;23.94;52.71;101588.50;5077037;28;45202;-46
2021/07/19 02:09:42;;;;;;;;;11.25;9.75;;;;;23.93;52.50;101576.19;5077116;28;45333;-46
2021/07/19 02:12:09;;;;;;;;;10.50;9.00;;;;;23.94;52.53;101580.56;5077238;28;45415;-50
2021/07/19 02:14:39;;;;;;;;;8.25;8.00;;;;;23.94;52.49;101582.38;5077314;28;45596;-48
2021/07/19 02:17:07;;;;;;;;;8.00;8.00;;;;;23.91;52.59;101566.66;5077262;27;45686;-47
2021/07/19 02:19:33;;;;;;;;;12.75;9.00;;;;;23.93;52.72;101570.06;5077201;27;45390;-46
2021/07/19 02:22:00;;;;;;;;;9.00;8.00;;;;;23.94;52.80;101571.78;5077030;28;45390;-46
2021/07/19 02:24:27;;;;;;;;;8.25;8.25;;;;;23.95;53.04;101573.50;5076590;28;45325;-46
2021/07/19 02:26:55;;;;;;;;;8.00;8.00;;;;;23.94;52.43;101567.31;5076826;27;45297;-47
2021/07/19 02:29:21;;;;;;;;;8.50;8.25;;;;;23.92;52.68;101563.91;5075566;28;45444;-47
2021/07/19 02:31:50;;;;;;;;;9.25;9.25;;;;;23.94;52.59;101571.78;5058844;28;45541;-46
2021/07/19 02:34:21;;;;;;;;;10.75;9.75;;;;;23.93;52.79;101573.56;5076687;28;45665;-46
2021/07/19 02:36:50;;;;;;;;;8.00;8.00;;;;;23.95;52.73;101578.81;5076442;28;45412;-46
2021/07/19 02:39:17;;;;;;;;;9.50;9.25;;;;;23.94;53.21;101577.06;5076826;28;45367;-48
2021/07/19 02:41:44;;;;;;;;;8.00;8.00;;;;;23.94;52.52;101582.38;5076706;28;45351;-46
2021/07/19 02:44:11;;;;;;;;;8.25;8.00;;;;;23.95;52.78;101584.09;5076585;28;46504;-47
2021/07/19 02:46:38;;;;;;;;;9.00;8.50;;;;;23.94;52.54;101577.06;5076635;28;45855;-46
2021/07/19 02:49:11;;;;;;;;;11.25;11.00;;;;;23.93;53.06;101576.19;5058845;28;45273;-47
2021/07/19 02:51:38;;;;;;;;;9.50;9.00;;;;;23.94;53.04;101577.06;5076884;27;45451;-46
2021/07/19 02:54:04;;;;;;;;;10.75;8.50;;;;;23.93;52.96;101581.50;5075425;28;48254;-47
2021/07/19 02:56:34;;;;;;;;;9.75;8.00;;;;;23.94;52.52;101587.66;5076478;27;45315;-53
2021/07/19 02:59:00;;;;;;;;;11.75;8.00;;;;;23.92;52.90;101581.59;5076644;28;45404;-52
2021/07/19 03:01:26;;;;;;;;;7.25;7.25;;;;;23.94;52.97;101577.06;5076480;28;45416;-46
2021/07/19 03:03:55;;;;;;;;;11.25;11.25;;;;;23.93;53.05;101580.66;5074892;28;46371;-48
2021/07/19 03:06:27;;;;;;;;;9.25;8.75;;;;;23.94;52.57;101577.91;5076296;28;45227;-47
2021/07/19 03:08:55;;;;;;;;;13.00;11.25;;;;;23.93;52.72;101576.19;5076323;27;45541;-47
2021/07/19 03:11:33;;;;;;;;;9.75;8.00;;;;;23.93;53.16;101576.19;5076451;28;45586;-46
2021/07/19 03:14:01;;;;;;;;;11.00;10.00;;;;;23.93;52.98;101575.38;5076267;27;45519;-47
2021/07/19 03:16:28;;;;;;;;;10.75;9.00;;;;;23.92;52.77;101571.00;5076120;28;45508;-50
2021/07/19 03:18:58;;;;;;;;;10.50;8.50;;;;;23.94;52.45;101574.44;5076200;28;45280;-54
2021/07/19 03:21:25;;;;;;;;;9.25;9.00;;;;;23.93;53.10;101578.84;5058178;28;45557;-56
2021/07/19 03:23:52;;;;;;;;;8.75;8.75;;;;;23.94;52.65;101577.06;5076013;28;45499;-49
2021/07/19 03:26:21;;;;;;;;;10.50;8.00;;;;;23.94;52.57;101577.06;5076125;28;46316;-54
2021/07/19 03:28:47;;;;;;;;;9.50;9.00;;;;;23.93;52.85;101573.56;5075890;27;45396;-54
2021/07/19 03:31:13;;;;;;;;;7.75;7.75;;;;;23.92;52.86;101571.84;5057989;28;45506;-50
2021/07/19 03:33:42;;;;;;;;;9.75;9.75;;;;;23.94;52.38;101571.78;5075919;28;46375;-46
2021/07/19 03:36:10;;;;;;;;;7.50;6.00;;;;;23.94;52.73;101569.97;5076097;28;45733;-46
2021/07/19 03:38:37;;;;;;;;;12.00;9.75;;;;;23.93;52.86;101568.25;5076404;28;45278;-51
2021/07/19 03:41:03;;;;;;;;;9.25;9.25;;;;;23.90;52.65;101567.59;5075917;28;45556;-52
2021/07/19 03:43:31;;;;;;;;;10.25;10.25;;;;;23.93;52.97;101567.41;5075887;28;46617;-53
2021/07/19 03:45:56;;;;;;;;;12.50;9.75;;;;;23.93;52.64;101562.97;5075725;28;45340;-49
2021/07/19 03:48:22;;;;;;;;;10.00;9.50;;;;;23.94;52.90;101566.47;5077430;28;45322;-52
2021/07/19 03:50:51;;;;;;;;;9.25;9.25;;;;;23.93;52.88;101549.72;5079384;27;45624;-46
2021/07/19 03:53:16;;;;;;;;;10.75;10.25;;;;;23.91;52.44;101556.94;5079041;28;46455;-47
2021/07/19 03:55:47;;;;;;;;;11.00;11.00;;;;;23.93;52.66;101564.78;5079075;28;45392;-47
2021/07/19 03:58:12;;;;;;;;;9.00;9.00;;;;;23.92;52.90;101563.06;5079343;27;45445;-51
2021/07/19 04:00:39;;;;;;;;;12.25;7.75;;;;;23.91;52.45;101556.06;5079577;28;45430;-55
2021/07/19 04:03:22;;;;;;;;;10.50;9.50;;;;;23.92;52.49;101571.00;5078778;27;46430;-53
2021/07/19 04:06:00;;;;;;;;;11.00;11.00;;;;;23.92;52.54;101563.06;5078976;28;45390;-54
2021/07/19 04:08:28;;;;;;;;;9.25;8.75;;;;;23.92;52.68;101569.19;5079150;27;45364;-52
2021/07/19 04:10:54;;;;;;;;;13.25;10.00;;;;;23.91;52.81;101561.34;5079139;27;45507;-46
2021/07/19 04:13:20;;;;;;;;;9.50;9.50;;;;;23.92;52.68;101563.06;5078787;28;45384;-48
2021/07/19 04:15:48;;;;;;;;;9.75;9.25;;;;;23.91;52.67;101561.34;5078760;27;46101;-51
2021/07/19 04:18:14;;;;;;;;;10.25;10.25;;;;;23.90;52.82;101559.66;5078975;28;45413;-49
2021/07/19 04:20:43;;;;;;;;;8.25;7.50;;;;;23.91;52.77;101562.22;5079396;28;45407;-46
2021/07/19 04:23:12;;;;;;;;;10.00;10.00;;;;;23.89;52.69;101553.50;5078979;28;46718;-47
2021/07/19 04:25:38;;;;;;;;;9.00;9.00;;;;;23.91;52.99;101556.06;5079012;28;45325;-49
2021/07/19 04:28:05;;;;;;;;;14.00;11.75;;;;;23.92;52.72;101563.91;5078671;28;45450;-50
2021/07/19 04:30:36;;;;;;;;;12.00;11.50;;;;;23.92;52.51;101555.13;5078833;27;45449;-50
2021/07/19 04:33:02;;;;;;;;;10.25;8.25;;;;;23.91;52.73;101549.00;5078557;28;46334;-47
2021/07/19 04:35:28;;;;;;;;;10.75;10.50;;;;;23.91;52.57;101556.06;5078459;27;45931;-45
2021/07/19 04:37:53;;;;;;;;;10.00;9.50;;;;;23.91;52.55;101556.94;5060585;28;45415;-50
2021/07/19 04:40:20;;;;;;;;;10.75;10.00;;;;;23.90;52.30;101557.88;5060326;28;45401;-48
2021/07/19 04:42:46;;;;;;;;;11.00;10.50;;;;;23.90;52.63;101555.22;5078178;28;45548;-45
2021/07/19 04:45:13;;;;;;;;;13.25;11.25;;;;;23.91;52.77;101558.72;5078772;27;45253;-50
2021/07/19 04:47:39;;;;;;;;;11.00;10.25;;;;;23.89;52.43;101552.66;5078717;28;45162;-51
2021/07/19 04:50:05;;;;;;;;;9.50;9.50;;;;;23.92;52.85;101563.91;5078660;27;45197;-46
2021/07/19 04:52:31;;;;;;;;;10.50;8.50;;;;;23.91;52.80;101554.28;5078170;28;46343;-49
2021/07/19 04:54:58;;;;;;;;;12.25;11.00;;;;;23.91;52.20;101543.69;5078110;28;45340;-50
2021/07/19 04:57:25;;;;;;;;;10.00;10.00;;;;;23.92;52.66;101557.78;5078275;28;45365;-45
2021/07/19 04:59:53;;;;;;;;;10.00;9.75;;;;;23.91;53.05;101561.34;5078442;28;45563;-47
2021/07/19 05:02:22;;;;;;;;;9.00;9.00;;;;;23.92;53.01;101563.06;5078087;28;45456;-45
2021/07/19 05:04:51;;;;;;;;;10.75;10.75;;;;;23.93;52.70;101564.78;5078137;28;45477;-48
2021/07/19 05:07:20;;;;;;;;;10.75;9.25;;;;;23.93;52.82;101564.78;5078002;27;45210;-45
2021/07/19 05:09:47;;;;;;;;;8.25;8.25;;;;;23.93;52.98;101564.78;5059953;28;45548;-46
2021/07/19 05:12:16;;;;;;;;;11.25;10.50;;;;;23.94;52.71;101567.31;5078146;28;46689;-48
2021/07/19 05:14:42;;;;;;;;;10.50;9.25;;;;;23.92;52.48;101565.72;5078335;28;45682;-45
2021/07/19 05:17:13;;;;;;;;;15.00;11.00;;;;;23.94;52.76;101572.63;5078050;27;45308;-46
2021/07/19 05:19:40;;;;;;;;;12.00;10.50;;;;;23.94;53.00;101571.78;5078239;28;45410;-45
2021/07/19 05:22:13;;;;;;;;;10.75;9.50;;;;;23.94;52.90;101574.44;5077559;28;46387;-45
2021/07/19 05:24:40;;;;;;;;;9.25;9.25;;;;;23.96;52.68;101571.72;5077754;27;45443;-45
2021/07/19 05:27:07;;;;;;;;;10.75;10.75;;;;;23.94;52.69;101567.31;5077883;27;45254;-46
2021/07/19 05:29:34;;;;;;;;;9.75;9.50;;;;;23.96;52.78;101572.56;5077941;28;45220;-45
2021/07/19 05:32:04;;;;;;;;;11.00;11.00;;;;;23.95;52.50;101573.50;5077531;28;45353;-47
2021/07/19 05:34:30;;;;;;;;;9.25;9.25;;;;;23.97;52.68;101576.94;5077577;28;45278;-49
2021/07/19 05:36:56;;;;;;;;;12.50;9.75;;;;;23.96;53.08;101575.22;5077544;27;45430;-46
2021/07/19 05:39:21;;;;;;;;;12.75;12.00;;;;;23.97;53.00;101571.63;5077876;28;45279;-45
2021/07/19 05:41:46;;;;;;;;;14.00;10.00;;;;;23.98;53.33;101580.41;5059126;28;46653;-45
2021/07/19 05:44:13;;;;;;;;;9.25;9.25;;;;;23.98;53.16;101573.31;5077888;27;45302;-46
2021/07/19 05:46:38;;;;;;;;;10.00;10.00;;;;;23.99;53.29;101577.66;5077464;28;45374;-45
2021/07/19 05:49:04;;;;;;;;;13.50;12.00;;;;;23.98;53.00;101575.13;5077688;27;45477;-47
2021/07/19 05:51:30;;;;;;;;;12.50;10.75;;;;;23.98;52.90;101575.97;5077079;28;47774;-45
2021/07/19 05:53:55;;;;;;;;;11.25;11.00;;;;;24.00;52.83;101582.03;5077447;27;45508;-45
2021/07/19 05:56:21;;;;;;;;;13.00;10.50;;;;;23.98;52.73;101575.97;5077129;28;45438;-45
2021/07/19 05:58:46;;;;;;;;;11.00;10.00;;;;;24.01;53.04;101580.25;5077497;28;45524;-50
2021/07/19 06:01:12;;;;;;;;;12.50;11.25;;;;;24.01;52.81;101580.25;5077202;28;47138;-45
2021/07/19 06:03:37;;;;;;;;;11.75;9.00;;;;;23.99;52.88;101575.03;5077229;28;45386;-45
2021/07/19 06:06:02;;;;;;;;;13.75;11.25;;;;;24.01;53.01;101573.16;5077084;28;45894;-46
2021/07/19 06:08:28;;;;;;;;;10.50;9.25;;;;;24.01;52.91;101573.16;5077333;28;45602;-47
2021/07/19 06:10:53;;;;;;;;;10.75;10.75;;;;;24.01;53.13;101569.66;5076369;28;46541;-45
2021/07/19 06:13:18;;;;;;;;;14.75;11.75;;;;;24.00;52.71;101571.44;5077033;28;45371;-45
2021/07/19 06:15:45;;;;;;;;;12.25;11.25;;;;;23.98;53.35;101560.06;5077295;28;45415;-48
2021/07/19 06:18:10;;;;;;;;;13.25;10.25;;;;;24.01;53.13;101570.50;5077227;28;45216;-45
2021/07/19 06:20:35;;;;;;;;;13.50;11.50;;;;;24.02;53.18;101574.84;5076621;27;45423;-46
2021/07/19 06:23:02;;;;;;;;;13.50;12.25;;;;;24.03;52.86;101576.56;5076797;28;45351;-46
2021/07/19 06:25:32;;;;;;;;;12.00;12.00;;;;;24.03;52.84;101579.22;5076922;28;45383;-46
2021/07/19 06:27:59;;;;;;;;;11.50;11.00;;;;;24.04;53.01;101578.28;5077117;28;45375;-49
2021/07/19 06:30:25;;;;;;;;;12.25;10.25;;;;;24.05;53.40;101571.16;5076606;28;45356;-44
2021/07/19 06:32:51;;;;;;;;;11.75;10.50;;;;;24.05;52.68;101572.03;5076841;28;45713;-43
2021/07/19 06:35:16;;;;;;;;;9.00;9.00;;;;;24.06;53.35;101571.09;5077041;28;45307;-43
2021/07/19 06:37:41;;;;;;;;;13.75;12.25;;;;;24.05;52.89;101569.38;5076881;28;45558;-43
2021/07/19 06:40:08;;;;;;;;;12.50;9.75;;;;;24.06;53.16;101565.78;5076364;28;46146;-44
2021/07/19 06:42:34;;;;;;;;;14.00;10.50;;;;;24.08;52.61;101577.16;5075966;28;45734;-45
2021/07/19 06:45:00;;;;;;;;;10.25;9.75;;;;;24.07;53.12;101567.50;5076680;28;45300;-41
2021/07/19 06:47:26;;;;;;;;;14.00;10.00;;;;;24.07;52.97;101570.16;5076746;27;45625;-45
2021/07/19 06:49:52;;;;;;;;;11.00;11.00;;;;;24.07;53.02;101562.22;5076409;28;46389;-43
2021/07/19 06:52:18;;;;;;;;;13.50;13.00;;;;;24.07;53.30;101570.16;5076630;28;45338;-47
2021/07/19 06:54:43;;;;;;;;;12.00;11.50;;;;;24.07;53.03;101561.34;5076538;28;45371;-46
2021/07/19 06:57:09;;;;;;;;;14.50;11.25;;;;;24.08;53.36;101563.03;5076499;28;45673;-45
2021/07/19 06:59:34;;;;;;;;;13.50;12.75;;;;;24.09;52.95;101564.75;5076342;27;45604;-46
2021/07/19 07:01:59;;;;;;;;;11.00;11.00;;;;;24.09;52.81;101559.47;5076120;28;45321;-49
2021/07/19 07:04:25;;;;;;;;;13.25;12.00;;;;;24.11;53.17;101568.16;5076274;28;45325;-49
2021/07/19 07:06:50;;;;;;;;;13.00;11.50;;;;;24.11;52.83;101562.00;5076620;28;45590;-47
2021/07/19 07:09:15;;;;;;;;;13.50;12.25;;;;;24.11;53.13;101560.22;5076435;28;46271;-50
2021/07/19 07:11:41;;;;;;;;;12.75;12.25;;;;;24.11;53.04;101562.88;5076172;28;45624;-49
2021/07/19 07:14:07;;;;;;;;;15.50;13.50;;;;;24.12;52.97;101563.72;5076349;28;45359;-49
2021/07/19 07:16:33;;;;;;;;;12.75;11.75;;;;;24.13;53.29;101563.66;5076355;28;45344;-47
2021/07/19 07:19:00;;;;;;;;;12.25;12.25;;;;;24.13;53.04;101560.13;5075916;27;45492;-46
2021/07/19 07:21:25;;;;;;;;;12.75;12.75;;;;;24.14;52.47;101561.84;5075986;28;45687;-50
2021/07/19 07:23:51;;;;;;;;;11.50;11.50;;;;;24.15;52.66;101555.59;5078455;28;45354;-49
2021/07/19 07:26:16;;;;;;;;;12.25;12.00;;;;;24.16;52.85;101557.31;5080224;28;45505;-46
2021/07/19 07:28:42;;;;;;;;;15.25;13.00;;;;;24.15;53.01;101558.25;5079353;28;46492;-48
2021/07/19 07:31:10;;;;;;;;;10.25;8.75;;;;;24.16;52.79;101557.31;5079435;28;45446;-43
2021/07/19 07:33:36;;;;;;;;;14.50;13.50;;;;;24.17;52.46;101553.72;5061465;28;45454;-51
2021/07/19 07:36:02;;;;;;;;;12.25;11.25;;;;;24.17;52.56;101561.66;5079679;28;45383;-43
2021/07/19 07:38:27;;;;;;;;;14.00;11.25;;;;;24.20;52.56;101566.75;5079344;27;45457;-52
2021/07/19 07:40:52;;;;;;;;;12.75;12.00;;;;;24.21;52.81;101563.16;5060827;28;46162;-46
2021/07/19 07:43:18;;;;;;;;;10.75;10.75;;;;;24.21;52.52;101563.16;5079610;28;45331;-43
2021/07/19 07:45:43;;;;;;;;;15.00;14.25;;;;;24.21;52.25;101568.47;5079556;28;45608;-48
2021/07/19 07:48:09;;;;;;;;;12.75;11.00;;;;;24.22;52.06;101564.88;5079092;27;45244;-50
2021/07/19 07:50:34;;;;;;;;;11.50;11.50;;;;;24.23;52.54;101559.50;5079175;27;45410;-51
2021/07/19 07:52:59;;;;;;;;;13.50;11.50;;;;;24.23;52.20;101562.16;5060559;28;45405;-48
2021/07/19 07:55:25;;;;;;;;;11.75;10.00;;;;;24.25;52.05;101559.41;5079547;28;45477;-49
2021/07/19 07:57:50;;;;;;;;;13.75;13.00;;;;;24.25;52.46;101556.75;5079580;28;45509;-47
2021/07/19 08:00:18;;;;;;;;;14.25;13.25;;;;;24.24;52.43;101553.25;5060478;28;45344;-45
2021/07/19 08:02:44;;;;;;;;;13.50;11.00;;;;;24.27;52.36;101560.16;5078917;27;45343;-46
2021/07/19 08:05:11;;;;;;;;;12.50;11.25;;;;;24.27;52.12;101556.66;5079391;27;45299;-45
2021/07/19 08:07:36;;;;;;;;;10.25;10.25;;;;;24.26;51.96;101550.50;5078663;28;46310;-45
2021/07/19 08:10:04;;;;;;;;;12.50;10.75;;;;;24.23;51.93;101550.69;5078844;27;45185;-44
2021/07/19 08:12:29;;;;;;;;;11.50;10.25;;;;;24.28;52.37;101548.63;5079051;28;45471;-45
2021/07/19 08:14:56;;;;;;;;;14.75;10.25;;;;;24.26;52.11;101550.50;5079093;27;45361;-42
2021/07/19 08:17:22;;;;;;;;;13.00;12.75;;;;;24.30;51.77;101554.69;5078881;28;46722;-47
2021/07/19 08:19:48;;;;;;;;;13.00;11.75;;;;;24.30;51.81;101549.38;5078707;28;45436;-44
2021/07/19 08:22:13;;;;;;;;;11.75;9.50;;;;;24.29;51.67;101550.34;5078687;28;45400;-52
2021/07/19 08:24:42;;;;;;;;;11.00;10.75;;;;;24.30;51.70;101541.44;5079167;28;45399;-48
2021/07/19 08:27:08;;;;;;;;;11.50;10.25;;;;;24.32;51.11;101547.47;5060395;28;46645;-44
2021/07/19 08:29:34;;;;;;;;;11.00;9.50;;;;;24.30;51.51;101540.56;5078667;28;45822;-49
2021/07/19 08:31:59;;;;;;;;;13.00;8.75;;;;;24.32;51.30;101539.53;5060553;28;45278;-43
2021/07/19 08:34:24;;;;;;;;;11.75;10.75;;;;;24.34;51.14;101544.75;5078363;28;45475;-45
2021/07/19 08:36:50;;;;;;;;;11.00;11.00;;;;;24.33;50.67;101546.53;5078842;27;45226;-43
2021/07/19 08:39:16;;;;;;;;;11.50;11.25;;;;;24.33;50.64;101549.19;5078705;27;45646;-47
2021/07/19 08:41:42;;;;;;;;;10.75;10.75;;;;;24.35;50.90;101541.16;5078304;28;45514;-44
2021/07/19 08:44:10;;;;;;;;;10.25;10.25;;;;;24.36;50.68;101546.34;5078667;27;45317;-51
2021/07/19 08:46:45;;;;;;;;;11.75;11.25;;;;;24.34;50.17;101542.94;5078217;27;47116;-46
2021/07/19 08:49:11;;;;;;;;;7.25;6.50;;;;;24.32;50.63;101531.59;5078448;28;45238;-44
2021/07/19 08:51:43;;;;;;;;;10.00;10.00;;;;;24.37;50.49;101539.25;5078353;28;45282;-47
2021/07/19 08:54:12;;;;;;;;;10.00;10.00;;;;;24.38;50.36;101544.47;5060786;28;45523;-47
2021/07/19 08:56:40;;;;;;;;;8.25;8.25;;;;;24.38;50.37;101543.59;5078110;28;46709;-50
2021/07/19 08:59:10;;;;;;;;;14.00;9.00;;;;;24.38;50.54;101538.31;5059949;28;45790;-51
2021/07/19 09:01:39;;;;;;;;;9.00;9.00;;;;;24.39;50.08;101540.88;5078262;28;45342;-46
2021/07/19 09:04:05;;;;;;;;;11.00;8.25;;;;;24.36;50.09;101535.75;5078398;28;45201;-57
2021/07/19 09:06:30;;;;;;;;;10.50;10.50;;;;;24.41;50.29;101537.28;5077976;28;46293;-45
2021/07/19 09:08:56;;;;;;;;;13.00;11.00;;;;;24.39;50.14;101540.00;5078328;28;45856;-47
2021/07/19 09:11:22;;;;;;;;;12.75;10.00;;;;;24.41;50.21;101538.13;5078356;28;45445;-53
2021/07/19 09:13:56;;;;;;;;;9.00;9.00;;;;;24.42;50.14;101533.69;5078246;28;45639;-48
2021/07/19 09:16:21;;;;;;;;;10.50;9.50;;;;;24.41;50.10;101535.47;5078062;27;46500;-47
2021/07/19 09:19:02;;;;;;;;;7.50;7.50;;;;;24.42;49.58;101531.03;5077670;28;47884;-51
2021/07/19 09:21:32;;;;;;;;;8.75;8.00;;;;;24.41;49.42;101521.38;5077886;28;45356;-47
2021/07/19 09:24:06;;;;;;;;;9.25;9.25;;;;;24.45;49.65;101529.06;5059715;28;45436;-49
2021/07/19 09:26:33;;;;;;;;;9.50;9.50;;;;;24.45;49.70;101526.41;5077495;28;46930;-48
2021/07/19 09:28:59;;;;;;;;;8.25;7.75;;;;;24.45;49.52;101522.88;5077837;27;45414;-54
2021/07/19 09:31:56;;;;;;;;;8.00;7.25;;;;;24.46;49.57;101529.88;5078100;28;45326;-50
2021/07/19 09:34:24;;;;;;;;;10.75;8.75;;;;;24.47;49.35;101527.16;5077689;28;45186;-53
2021/07/19 09:37:17;;;;;;;;;11.00;9.25;;;;;24.47;48.77;101523.66;5077483;28;46347;-58
2021/07/19 09:39:45;;;;;;;;;5.50;5.50;;;;;24.48;49.05;101528.00;5074030;28;45345;-53
2021/07/19 09:42:17;;;;;;;;;8.00;8.00;;;;;24.48;49.14;101526.19;5076071;28;45548;-49
2021/07/19 09:44:51;;;;;;;;;9.00;9.00;;;;;24.47;48.75;101521.88;5075842;28;45582;-54
2021/07/19 09:47:17;;;;;;;;;8.50;8.00;;;;;24.50;49.06;101523.47;5076944;27;46245;-54
2021/07/19 09:49:43;;;;;;;;;9.25;9.25;;;;;24.52;48.98;101524.22;5077300;28;45309;-43
2021/07/19 09:52:11;;;;;;;;;11.75;10.00;;;;;24.53;48.88;101520.59;5077482;28;45179;-46
2021/07/19 09:54:42;;;;;;;;;11.25;8.25;;;;;24.55;48.64;101518.72;5077649;28;45537;-45
2021/07/19 09:57:08;;;;;;;;;14.75;9.25;;;;;24.58;48.14;101510.59;5077086;28;45954;-48
2021/07/19 09:59:57;;;;;;;;;8.25;8.25;;;;;24.60;48.54;101515.78;5077278;28;45264;-46
2021/07/19 10:02:32;;;;;;;;;12.50;9.50;;;;;24.64;48.38;101512.00;5076685;28;45327;-48
2021/07/19 10:04:57;;;;;;;;;7.75;7.75;;;;;24.66;48.42;101507.47;5077858;28;45356;-44
2021/07/19 10:07:26;;;;;;;;;10.25;9.00;;;;;24.69;48.53;101499.38;5076929;28;46384;-43
2021/07/19 10:09:58;;;;;;;;;14.75;11.00;;;;;24.70;47.80;101498.38;5077059;27;45601;-43
2021/07/19 10:12:25;;;;;;;;;9.75;8.50;;;;;24.72;47.81;101506.25;5077527;28;45790;-47
2021/07/19 10:14:51;;;;;;;;;8.00;8.00;;;;;24.75;48.19;101506.91;5077438;28;45389;-54
2021/07/19 10:17:17;;;;;;;;;12.00;10.25;;;;;24.78;48.12;101500.56;5076936;28;46238;-49
2021/07/19 10:19:42;;;;;;;;;14.00;10.75;;;;;24.79;47.77;101510.22;5076919;28;45357;-45
2021/07/19 10:22:13;;;;;;;;;9.25;9.25;;;;;24.80;48.15;101502.19;5076892;27;45284;-44
2021/07/19 10:24:39;;;;;;;;;11.75;9.50;;;;;24.80;48.02;101502.19;5058719;28;45513;-49
2021/07/19 10:27:05;;;;;;;;;12.00;11.50;;;;;24.82;47.90;101500.28;5076700;28;47268;-46
2021/07/19 10:29:31;;;;;;;;;17.75;13.00;;;;;24.84;48.21;101503.69;5076878;28;45221;-43
2021/07/19 10:31:56;;;;;;;;;13.00;10.50;;;;;24.85;48.07;101504.56;5077152;28;45303;-48
2021/07/19 10:34:22;;;;;;;;;10.25;8.75;;;;;24.88;47.97;101503.50;5077060;28;45463;-50
2021/07/19 10:36:54;;;;;;;;;11.75;10.75;;;;;24.88;47.95;101499.03;5076494;27;46564;-59
2021/07/19 10:39:30;;;;;;;;;10.00;9.50;;;;;24.90;47.81;101507.75;5076667;27;45737;-41
2021/07/19 10:42:07;;;;;;;;;9.75;8.25;;;;;24.91;47.68;101504.16;5076718;28;45778;-50
2021/07/19 10:44:36;;;;;;;;;10.00;10.00;;;;;24.93;47.52;101504.03;5076839;28;45281;-52
2021/07/19 10:47:11;;;;;;;;;10.00;8.75;;;;;24.94;47.40;101493.34;5076526;27;45498;-43
2021/07/19 10:49:41;;;;;;;;;11.25;10.25;;;;;24.93;47.82;101491.66;5076552;27;45663;-45
2021/07/19 10:52:12;;;;;;;;;11.25;9.00;;;;;24.95;47.97;101489.75;5076544;28;45359;-46
2021/07/19 10:54:48;;;;;;;;;15.50;11.75;;;;;24.98;47.30;101494.00;5076792;28;45319;-47
2021/07/19 10:57:17;;;;;;;;;11.50;11.50;;;;;24.99;47.81;101485.94;5077721;28;46179;-43
2021/07/19 10:59:45;;;;;;;;;11.75;10.75;;;;;24.98;47.73;101494.84;5080039;28;45954;-41
2021/07/19 11:02:25;;;;;;;;;12.00;11.00;;;;;25.00;47.62;101487.63;5080133;27;45509;-47
2021/07/19 11:04:50;;;;;;;;;11.50;10.00;;;;;25.03;47.38;101488.41;5078907;27;45272;-48
2021/07/19 11:07:16;;;;;;;;;16.50;12.00;;;;;25.04;47.27;101476.84;5079833;28;46342;-49
2021/07/19 11:09:41;;;;;;;;;16.00;11.25;;;;;25.05;46.95;101482.03;5079997;27;45216;-43
2021/07/19 11:12:07;;;;;;;;;11.25;11.25;;;;;25.08;47.11;101488.97;5079944;27;45295;-47
2021/07/19 11:14:42;;;;;;;;;12.25;8.50;;;;;25.09;46.86;101480.03;5080028;27;45522;-53
2021/07/19 11:17:09;;;;;;;;;12.50;12.50;;;;;25.13;47.28;101492.16;5079935;28;45800;-47
2021/07/19 11:19:36;;;;;;;;;12.25;11.00;;;;;25.15;46.99;101492.91;5079713;28;45351;-49